createdAt,value
2022-12-08T00:01:20.739Z,21.38
2022-12-08T00:03:48.279Z,21.70
2022-12-08T00:06:43.780Z,23.67
2022-12-08T00:09:38.169Z,30.13
2022-12-08T00:12:11.605Z,20.20
2022-12-08T00:14:43.474Z,21.55
2022-12-08T00:17:12.067Z,24.60
2022-12-08T00:19:39.948Z,25.73
2022-12-08T00:22:08.420Z,23.70
2022-12-08T00:24:40.534Z,26.58
2022-12-08T00:27:08.636Z,24.08
2022-12-08T00:29:35.146Z,27.23
2022-12-08T00:32:01.837Z,31.33
2022-12-08T00:34:28.474Z,35.03
2022-12-08T00:36:55.072Z,28.10
2022-12-08T00:39:21.770Z,29.98
2022-12-08T00:42:06.714Z,36.95
2022-12-08T00:44:33.265Z,27.10
2022-12-08T00:46:59.785Z,29.33
2022-12-08T00:49:26.526Z,29.92
2022-12-08T00:51:53.212Z,27.77
2022-12-08T00:54:20.274Z,25.88
2022-12-08T00:56:46.858Z,29.20
2022-12-08T00:59:13.378Z,27.63
2022-12-08T01:01:40.042Z,24.67
2022-12-08T01:04:08.623Z,23.88
2022-12-08T01:06:36.202Z,27.70
2022-12-08T01:09:04.633Z,25.20
2022-12-08T01:11:31.629Z,27.35
2022-12-08T01:13:58.306Z,26.70
2022-12-08T01:16:27.818Z,23.00
2022-12-08T01:18:55.016Z,22.15
2022-12-08T01:21:22.007Z,25.33
2022-12-08T01:23:48.582Z,22.52
2022-12-08T01:26:16.921Z,20.65
2022-12-08T01:28:44.446Z,24.85
2022-12-08T01:31:16.696Z,20.90
2022-12-08T01:33:43.913Z,22.20
2022-12-08T01:36:20.679Z,24.65
2022-12-08T01:38:47.509Z,21.30
2022-12-08T01:41:19.420Z,20.05
2022-12-08T01:44:00.985Z,20.48
2022-12-08T01:46:30.715Z,20.70
2022-12-08T01:49:05.266Z,22.77
2022-12-08T01:51:38.395Z,19.50
2022-12-08T01:54:06.926Z,22.83
2022-12-08T01:56:58.876Z,22.45
2022-12-08T01:59:26.915Z,21.57
2022-12-08T02:01:53.613Z,21.60
2022-12-08T02:04:20.334Z,30.52
2022-12-08T02:06:49.579Z,22.05
2022-12-08T02:09:16.781Z,21.58
2022-12-08T02:11:43.287Z,22.70
2022-12-08T02:14:13.516Z,20.83
2022-12-08T02:16:57.926Z,19.55
2022-12-08T02:20:02.567Z,24.20
2022-12-08T02:22:52.198Z,21.98
2022-12-08T02:25:49.723Z,21.87
2022-12-08T02:28:38.094Z,19.75
2022-12-08T02:31:34.643Z,18.58
2022-12-08T02:34:30.473Z,22.10
2022-12-08T02:37:06.032Z,23.58
2022-12-08T02:39:35.465Z,18.53
2022-12-08T02:42:08.498Z,21.60
2022-12-08T02:45:00.244Z,18.75
2022-12-08T02:47:28.144Z,18.15
2022-12-08T02:49:59.046Z,22.13
2022-12-08T02:52:25.522Z,22.27
2022-12-08T02:54:59.528Z,20.58
2022-12-08T02:57:56.137Z,23.10
2022-12-08T03:00:25.251Z,21.30
2022-12-08T03:03:09.972Z,22.90
2022-12-08T03:06:09.330Z,22.03
2022-12-08T03:08:41.818Z,18.50
2022-12-08T03:11:15.077Z,19.60
2022-12-08T03:13:46.350Z,24.42
2022-12-08T03:16:17.478Z,22.02
2022-12-08T03:18:49.535Z,23.77
2022-12-08T03:21:19.438Z,20.38
2022-12-08T03:23:49.633Z,19.45
2022-12-08T03:26:31.809Z,25.35
2022-12-08T03:28:58.716Z,20.50
2022-12-08T03:31:29.033Z,21.70
2022-12-08T03:33:58.497Z,18.55
2022-12-08T03:36:26.091Z,21.48
2022-12-08T03:38:54.238Z,24.50
2022-12-08T03:41:22.661Z,23.27
2022-12-08T03:43:54.290Z,20.17
2022-12-08T03:48:48.533Z,18.27
2022-12-08T03:51:15.749Z,19.23
2022-12-08T03:53:42.609Z,20.23
2022-12-08T03:56:26.289Z,20.37
2022-12-08T03:58:53.950Z,23.08
2022-12-08T04:01:21.433Z,21.20
2022-12-08T04:03:48.620Z,17.23
2022-12-08T04:06:15.970Z,23.70
2022-12-08T04:08:42.904Z,30.10
2022-12-08T04:11:09.840Z,28.67
2022-12-08T04:13:38.340Z,25.55
2022-12-08T04:16:05.994Z,30.25
2022-12-08T04:18:33.503Z,27.00
2022-12-08T04:21:00.142Z,24.67
2022-12-08T04:23:26.807Z,23.95
2022-12-08T04:25:53.823Z,25.35
2022-12-08T04:28:20.519Z,23.80
2022-12-08T04:30:48.327Z,20.45
2022-12-08T04:33:15.014Z,22.93
2022-12-08T04:35:41.634Z,18.40
2022-12-08T04:38:08.286Z,18.75
2022-12-08T04:40:34.942Z,23.30
2022-12-08T04:43:01.467Z,18.52
2022-12-08T04:45:27.981Z,22.30
2022-12-08T04:47:54.555Z,22.98
2022-12-08T04:50:21.299Z,24.67
2022-12-08T04:52:48.094Z,17.02
2022-12-08T04:55:14.753Z,16.38
2022-12-08T04:57:41.286Z,21.00
2022-12-08T05:00:08.786Z,18.05
2022-12-08T05:02:35.910Z,18.83
2022-12-08T05:05:02.496Z,17.83
2022-12-08T05:07:29.049Z,17.08
2022-12-08T05:09:55.716Z,18.70
2022-12-08T05:12:22.237Z,21.85
2022-12-08T05:14:48.819Z,21.42
2022-12-08T05:17:17.168Z,23.23
2022-12-08T05:19:44.137Z,21.08
2022-12-08T05:22:11.164Z,20.33
2022-12-08T05:24:42.501Z,20.38
2022-12-08T05:27:12.462Z,17.30
2022-12-08T05:29:39.000Z,18.63
2022-12-08T05:32:05.832Z,19.58
2022-12-08T05:34:32.482Z,19.77
2022-12-08T05:36:59.037Z,21.05
2022-12-08T05:39:25.674Z,19.17
2022-12-08T05:41:52.187Z,17.38
2022-12-08T05:44:18.751Z,22.63
2022-12-08T05:46:45.400Z,22.10
2022-12-08T05:49:11.963Z,17.38
2022-12-08T05:51:38.518Z,18.23
2022-12-08T05:54:05.197Z,21.15
2022-12-08T05:56:31.714Z,20.35
2022-12-08T05:58:58.392Z,19.97
2022-12-08T06:01:30.719Z,15.88
2022-12-08T06:03:59.891Z,19.90
2022-12-08T06:06:27.038Z,20.02
2022-12-08T06:08:53.905Z,26.63
2022-12-08T06:11:26.223Z,21.47
2022-12-08T06:13:53.886Z,21.25
2022-12-08T06:16:20.550Z,17.80
2022-12-08T06:18:47.507Z,20.75
2022-12-08T06:21:15.477Z,17.40
2022-12-08T06:23:42.802Z,21.97
2022-12-08T06:26:12.370Z,19.25
2022-12-08T06:28:39.773Z,24.33
2022-12-08T06:31:11.084Z,22.27
2022-12-08T06:33:38.449Z,18.45
2022-12-08T06:36:06.266Z,16.33
2022-12-08T06:38:33.409Z,20.50
2022-12-08T06:41:00.660Z,23.80
2022-12-08T06:43:27.720Z,20.92
2022-12-08T06:45:54.355Z,24.05
2022-12-08T06:48:21.111Z,19.87
2022-12-08T06:50:47.609Z,23.88
2022-12-08T06:53:15.220Z,22.65
2022-12-08T06:56:01.812Z,22.85
2022-12-08T06:58:28.587Z,17.65
2022-12-08T07:00:55.324Z,22.43
2022-12-08T07:03:22.150Z,21.60
2022-12-08T07:05:49.221Z,29.40
2022-12-08T07:08:15.890Z,19.35
2022-12-08T07:10:42.781Z,23.38
2022-12-08T07:13:09.409Z,25.33
2022-12-08T07:15:35.926Z,22.67
2022-12-08T07:18:02.506Z,19.35
2022-12-08T07:20:29.259Z,18.90
2022-12-08T07:22:56.142Z,22.70
2022-12-08T07:25:23.212Z,20.67
2022-12-08T07:27:51.622Z,25.38
2022-12-08T07:30:18.502Z,16.60
2022-12-08T07:32:45.467Z,18.65
2022-12-08T07:35:12.056Z,18.83
2022-12-08T07:37:38.897Z,18.63
2022-12-08T07:40:07.666Z,20.75
2022-12-08T07:42:34.684Z,22.35
2022-12-08T07:45:01.302Z,24.15
2022-12-08T07:47:27.875Z,22.55
2022-12-08T07:49:54.380Z,25.10
2022-12-08T07:52:20.986Z,22.55
2022-12-08T07:54:47.533Z,22.63
2022-12-08T07:57:14.159Z,21.65
2022-12-08T07:59:40.677Z,31.63
2022-12-08T08:02:24.017Z,19.80
2022-12-08T08:04:51.852Z,20.40
2022-12-08T08:07:18.414Z,19.42
2022-12-08T08:09:45.752Z,22.55
2022-12-08T08:15:04.096Z,22.83
2022-12-08T08:17:30.848Z,26.85
2022-12-08T08:19:57.949Z,22.35
2022-12-08T08:22:25.426Z,19.38
2022-12-08T08:24:52.278Z,17.42
2022-12-08T08:27:19.556Z,21.17
2022-12-08T08:29:46.146Z,19.88
2022-12-08T08:32:12.731Z,21.83
2022-12-08T08:34:39.464Z,19.85
2022-12-08T08:37:06.131Z,25.33
2022-12-08T08:39:32.866Z,21.70
2022-12-08T08:41:59.413Z,24.10
2022-12-08T08:44:25.947Z,23.15
2022-12-08T08:46:52.637Z,23.38
2022-12-08T08:49:20.155Z,20.75
2022-12-08T08:51:46.877Z,18.37
2022-12-08T08:54:13.760Z,24.25
2022-12-08T08:56:40.286Z,22.30
2022-12-08T08:59:06.823Z,25.55
2022-12-08T09:01:33.954Z,23.15
2022-12-08T09:04:01.448Z,18.80
2022-12-08T09:06:28.559Z,22.23
2022-12-08T09:08:55.404Z,19.30
2022-12-08T09:11:23.619Z,22.63
2022-12-08T09:13:51.737Z,24.00
2022-12-08T09:16:22.322Z,19.57
2022-12-08T09:18:51.792Z,21.48
2022-12-08T09:21:23.078Z,19.02
2022-12-08T09:23:51.413Z,23.77
2022-12-08T09:26:18.660Z,24.85
2022-12-08T09:28:46.842Z,21.93
2022-12-08T09:31:14.700Z,27.63
2022-12-08T09:33:41.839Z,26.90
2022-12-08T09:36:09.074Z,29.05
2022-12-08T09:38:36.001Z,30.73
2022-12-08T09:41:07.774Z,27.47
2022-12-08T09:43:55.802Z,22.65
2022-12-08T09:46:22.595Z,24.73
2022-12-08T09:48:57.005Z,31.25
2022-12-08T09:51:31.650Z,30.52
2022-12-08T09:54:11.984Z,32.50
2022-12-08T09:56:39.528Z,30.95
2022-12-08T09:59:09.218Z,26.15
2022-12-08T10:01:41.669Z,30.25
2022-12-08T10:04:28.936Z,38.95
2022-12-08T10:06:58.434Z,31.13
2022-12-08T10:09:41.558Z,34.72
2022-12-08T10:12:20.145Z,36.05
2022-12-08T10:15:16.769Z,37.53
2022-12-08T10:17:51.125Z,35.97
2022-12-08T10:20:26.490Z,28.60
2022-12-08T10:23:07.521Z,30.15
2022-12-08T10:25:39.315Z,31.70
2022-12-08T10:28:05.826Z,33.42
2022-12-08T10:30:32.486Z,31.23
2022-12-08T10:32:59.814Z,29.20
2022-12-08T10:35:43.315Z,28.15
2022-12-08T10:38:17.903Z,31.00
2022-12-08T10:40:46.661Z,32.28
2022-12-08T10:43:18.713Z,24.92
2022-12-08T10:45:45.384Z,23.67
2022-12-08T10:48:19.323Z,20.67
2022-12-08T10:50:57.080Z,20.77
2022-12-08T10:53:29.469Z,23.48
2022-12-08T10:56:02.070Z,18.35
2022-12-08T10:58:43.019Z,20.97
2022-12-08T11:01:20.114Z,18.88
2022-12-08T11:03:58.338Z,12.02
2022-12-08T11:06:39.165Z,14.45
2022-12-08T11:09:18.052Z,11.82
2022-12-08T11:11:46.144Z,16.77
2022-12-08T11:14:19.566Z,13.68
2022-12-08T11:16:46.252Z,12.10
2022-12-08T11:19:18.326Z,11.75
2022-12-08T11:21:46.112Z,11.07
2022-12-08T11:24:15.986Z,11.23
2022-12-08T11:27:04.525Z,10.23
2022-12-08T11:29:35.336Z,12.27
2022-12-08T11:32:04.605Z,10.88
2022-12-08T11:34:41.916Z,16.20
2022-12-08T11:37:34.644Z,12.47
2022-12-08T11:40:07.514Z,13.82
2022-12-08T11:42:41.671Z,14.60
2022-12-08T11:45:15.963Z,14.38
2022-12-08T11:48:05.936Z,15.13
2022-12-08T11:50:43.042Z,11.80
2022-12-08T11:53:25.004Z,12.80
2022-12-08T11:55:57.715Z,13.25
2022-12-08T11:58:41.432Z,12.02
2022-12-08T12:01:19.194Z,13.15
2022-12-08T12:03:54.469Z,13.23
2022-12-08T12:06:55.178Z,11.70
2022-12-08T12:09:48.626Z,11.07
2022-12-08T12:12:39.632Z,15.73
2022-12-08T12:15:40.284Z,10.57
2022-12-08T12:18:14.848Z,12.17
2022-12-08T12:20:53.239Z,12.35
2022-12-08T12:23:38.842Z,14.18
2022-12-08T12:26:16.699Z,12.00
2022-12-08T12:28:49.817Z,14.38
2022-12-08T12:31:21.803Z,15.07
2022-12-08T12:33:50.059Z,15.10
2022-12-08T12:36:17.276Z,14.02
2022-12-08T12:39:01.364Z,13.15
2022-12-08T12:41:34.353Z,15.10
2022-12-08T12:44:24.305Z,15.87
2022-12-08T12:46:50.892Z,13.13
2022-12-08T12:49:49.768Z,12.18
2022-12-08T12:52:16.209Z,18.75
2022-12-08T12:55:03.810Z,7.55
2022-12-08T12:57:37.364Z,15.20
2022-12-08T13:00:03.881Z,19.05
2022-12-08T13:02:39.985Z,14.35
2022-12-08T13:05:30.848Z,12.18
2022-12-08T13:08:02.067Z,12.93
2022-12-08T13:10:33.248Z,17.40
2022-12-08T13:13:21.016Z,14.18
2022-12-08T13:15:56.615Z,12.48
2022-12-08T13:18:32.256Z,13.80
2022-12-08T13:21:15.009Z,12.00
2022-12-08T13:23:45.938Z,14.13
2022-12-08T13:26:18.408Z,13.77
2022-12-08T13:29:01.337Z,16.08
2022-12-08T13:31:49.831Z,14.00
2022-12-08T13:34:51.781Z,11.85
2022-12-08T13:37:54.428Z,13.87
2022-12-08T13:40:25.419Z,12.43
2022-12-08T13:43:10.591Z,13.20
2022-12-08T13:46:41.987Z,12.82
2022-12-08T13:57:32.761Z,9.35
2022-12-08T14:00:02.323Z,13.75
2022-12-08T14:02:47.774Z,11.32
2022-12-08T14:05:40.676Z,10.47
2022-12-08T14:08:07.088Z,9.63
2022-12-08T14:10:33.642Z,11.25
2022-12-08T14:13:05.538Z,12.63
2022-12-08T14:15:37.756Z,9.70
2022-12-08T14:18:04.682Z,9.57
2022-12-08T14:20:46.526Z,7.07
2022-12-08T14:23:18.763Z,9.75
2022-12-08T14:25:47.979Z,9.65
2022-12-08T14:28:14.591Z,8.48
2022-12-08T14:30:41.248Z,11.90
2022-12-08T14:33:14.687Z,7.13
2022-12-08T14:35:41.498Z,8.70
2022-12-08T14:38:16.858Z,8.23
2022-12-08T14:41:06.780Z,8.23
2022-12-08T14:43:33.619Z,6.87
2022-12-08T14:46:02.890Z,9.05
2022-12-08T14:48:36.342Z,8.77
2022-12-08T14:51:33.252Z,8.20
2022-12-08T14:54:09.916Z,7.95
2022-12-08T14:56:40.427Z,8.43
2022-12-08T14:59:17.523Z,8.05
2022-12-08T15:01:44.974Z,6.47
2022-12-08T15:04:14.773Z,8.52
2022-12-08T15:06:52.966Z,8.35
2022-12-08T15:09:32.443Z,9.10
2022-12-08T15:12:24.724Z,7.40
2022-12-08T15:14:57.680Z,8.13
2022-12-08T15:17:30.229Z,7.95
2022-12-08T15:19:58.239Z,8.57
2022-12-08T15:22:26.638Z,9.23
2022-12-08T15:24:53.925Z,13.65
2022-12-08T15:27:23.103Z,9.30
2022-12-08T15:29:50.529Z,10.38
2022-12-08T15:32:22.290Z,9.48
2022-12-08T15:34:49.061Z,9.70
2022-12-08T15:37:24.061Z,8.65
2022-12-08T15:39:51.274Z,13.55
2022-12-08T15:42:17.874Z,11.63
2022-12-08T15:44:44.567Z,16.05
2022-12-08T15:47:16.765Z,10.80
2022-12-08T15:49:43.891Z,16.38
2022-12-08T15:52:16.207Z,14.45
2022-12-08T15:54:42.832Z,13.88
2022-12-08T16:00:52.820Z,11.87
2022-12-08T16:09:39.055Z,21.73
2022-12-08T16:13:47.982Z,20.20
2022-12-08T16:18:23.191Z,11.85
2022-12-08T16:23:44.968Z,13.88
2022-12-08T16:26:28.646Z,20.63
2022-12-08T16:29:02.980Z,15.40
2022-12-08T16:31:29.648Z,16.63
2022-12-08T16:33:56.270Z,20.15
2022-12-08T16:36:22.807Z,20.42
2022-12-08T16:38:49.323Z,14.60
2022-12-08T16:41:36.072Z,13.67
2022-12-08T16:44:04.154Z,13.55
2022-12-08T16:46:31.048Z,12.50
2022-12-08T16:48:59.066Z,14.57
2022-12-08T16:51:27.363Z,16.83
2022-12-08T16:53:55.332Z,14.53
2022-12-08T16:56:26.184Z,14.00
2022-12-08T16:58:57.136Z,14.80
2022-12-08T17:01:23.968Z,14.25
2022-12-08T17:04:14.246Z,14.95
2022-12-08T17:06:37.194Z,15.17
2022-12-08T17:09:03.962Z,25.38
2022-12-08T17:11:36.275Z,23.42
2022-12-08T17:14:09.207Z,23.27
2022-12-08T17:16:35.913Z,19.42
2022-12-08T17:19:02.554Z,19.13
2022-12-08T17:21:29.123Z,21.25
2022-12-08T17:23:55.757Z,21.25
2022-12-08T17:26:22.364Z,22.25
2022-12-08T17:29:04.256Z,22.45
2022-12-08T17:31:32.572Z,22.37
2022-12-08T17:34:04.325Z,19.33
2022-12-08T17:36:31.361Z,18.10
2022-12-08T17:38:59.460Z,21.45
2022-12-08T17:41:26.112Z,19.48
2022-12-08T17:43:52.710Z,21.53
2022-12-08T17:46:20.607Z,19.85
2022-12-08T17:48:50.181Z,23.80
2022-12-08T17:51:16.732Z,18.08
2022-12-08T17:53:43.391Z,20.30
2022-12-08T17:56:19.793Z,19.43
2022-12-08T17:58:52.630Z,18.83
2022-12-08T18:01:21.399Z,23.33
2022-12-08T18:03:49.235Z,20.08
2022-12-08T18:06:17.567Z,22.88
2022-12-08T18:08:44.439Z,24.40
2022-12-08T18:11:17.906Z,19.25
2022-12-08T18:13:45.852Z,33.28
2022-12-08T18:16:12.531Z,37.35
2022-12-08T18:18:39.560Z,35.30
2022-12-08T18:21:06.965Z,30.27
2022-12-08T18:23:34.806Z,28.00
2022-12-08T18:26:03.175Z,25.73
2022-12-08T18:28:29.713Z,27.92
2022-12-08T18:30:56.356Z,25.17
2022-12-08T18:33:22.949Z,25.10
2022-12-08T18:35:49.493Z,23.55
2022-12-08T18:38:16.081Z,20.30
2022-12-08T18:40:42.753Z,22.80
2022-12-08T18:43:09.297Z,25.77
2022-12-08T18:45:37.018Z,23.90
2022-12-08T18:48:03.822Z,25.67
2022-12-08T18:50:30.367Z,27.30
2022-12-08T18:52:56.998Z,24.95
2022-12-08T18:55:23.699Z,31.02
2022-12-08T18:57:50.296Z,32.40
2022-12-08T19:00:18.668Z,27.15
2022-12-08T19:02:46.806Z,22.13
2022-12-08T19:05:14.171Z,24.55
2022-12-08T19:07:42.547Z,20.70
2022-12-08T19:10:10.328Z,24.23
2022-12-08T19:12:37.033Z,24.17
2022-12-08T19:15:04.264Z,19.98
2022-12-08T19:17:31.049Z,22.05
2022-12-08T19:19:57.567Z,22.17
2022-12-08T19:22:24.158Z,23.37
2022-12-08T19:24:50.705Z,24.58
2022-12-08T19:27:17.299Z,22.77
2022-12-08T19:29:43.800Z,24.00
2022-12-08T19:32:10.402Z,29.92
2022-12-08T19:34:37.032Z,29.53
2022-12-08T19:37:03.874Z,25.77
2022-12-08T19:39:49.252Z,30.50
2022-12-08T19:42:37.325Z,25.77
2022-12-08T19:45:13.235Z,35.45
2022-12-08T19:47:41.163Z,30.50
2022-12-08T19:50:29.324Z,33.08
2022-12-08T19:52:56.383Z,34.22
2022-12-08T19:55:26.249Z,33.20
2022-12-08T19:57:53.440Z,46.88
2022-12-08T20:00:21.287Z,37.80
2022-12-08T20:02:48.522Z,39.13
2022-12-08T20:05:15.626Z,32.58
2022-12-08T20:07:42.910Z,39.58
2022-12-08T20:10:16.497Z,41.30
2022-12-08T20:12:43.179Z,35.63
2022-12-08T20:15:10.328Z,32.10
2022-12-08T20:17:38.450Z,36.53
2022-12-08T20:20:07.578Z,40.20
2022-12-08T20:22:34.674Z,33.92
2022-12-08T20:25:02.292Z,42.77
2022-12-08T20:27:29.278Z,38.05
2022-12-08T20:29:55.946Z,38.97
2022-12-08T20:32:22.494Z,39.58
2022-12-08T20:34:49.217Z,35.33
2022-12-08T20:37:15.793Z,35.83
2022-12-08T20:39:42.424Z,35.95
2022-12-08T20:42:12.696Z,37.95
2022-12-08T20:44:43.344Z,44.55
2022-12-08T20:47:11.141Z,37.70
2022-12-08T20:49:38.937Z,43.67
2022-12-08T20:52:05.585Z,37.13
2022-12-08T20:54:32.233Z,35.58
2022-12-08T20:56:58.821Z,35.78
2022-12-08T20:59:26.448Z,37.03
2022-12-08T21:01:53.555Z,31.70
2022-12-08T21:04:21.124Z,40.08
2022-12-08T21:06:48.145Z,31.30
2022-12-08T21:09:15.022Z,41.55
2022-12-08T21:11:41.629Z,35.67
2022-12-08T21:14:08.562Z,36.93
2022-12-08T21:16:35.313Z,44.30
2022-12-08T21:19:02.084Z,42.50
2022-12-08T21:21:28.837Z,48.70
2022-12-08T21:23:55.356Z,45.58
2022-12-08T21:26:25.994Z,47.83
2022-12-08T21:28:54.830Z,40.97
2022-12-08T21:31:22.249Z,41.90
2022-12-08T21:33:49.241Z,32.33
2022-12-08T21:36:19.062Z,42.30
2022-12-08T21:38:48.057Z,31.70
2022-12-08T21:41:37.603Z,39.50
2022-12-08T21:44:05.685Z,37.80
2022-12-08T21:46:33.304Z,37.33
2022-12-08T21:49:00.328Z,31.48
2022-12-08T21:51:27.170Z,35.53
2022-12-08T21:53:54.482Z,36.85
2022-12-08T21:56:21.081Z,32.88
2022-12-08T21:58:47.977Z,32.33
2022-12-08T22:01:14.871Z,35.03
2022-12-08T22:03:42.086Z,39.30
2022-12-08T22:06:12.321Z,38.20
2022-12-08T22:08:39.819Z,37.45
2022-12-08T22:11:08.103Z,39.72
2022-12-08T22:13:36.284Z,39.92
2022-12-08T22:16:05.637Z,47.70
2022-12-08T22:18:33.891Z,42.78
2022-12-08T22:21:00.581Z,40.25
2022-12-08T22:23:28.500Z,39.33
2022-12-08T22:26:02.636Z,40.13
2022-12-08T22:28:33.121Z,50.57
2022-12-08T22:30:59.763Z,40.17
2022-12-08T22:33:29.809Z,41.58
2022-12-08T22:36:08.056Z,39.10
2022-12-08T22:38:36.483Z,38.80
2022-12-08T22:41:05.664Z,36.60
2022-12-08T22:43:33.238Z,36.40
2022-12-08T22:46:00.392Z,39.25
2022-12-08T22:48:27.375Z,40.95
2022-12-08T22:51:01.034Z,47.58
2022-12-08T22:53:27.521Z,44.40
2022-12-08T22:55:54.025Z,41.90
2022-12-08T22:58:20.873Z,45.22
2022-12-08T23:00:47.808Z,37.35
2022-12-08T23:03:14.628Z,55.00
2022-12-08T23:05:41.647Z,41.00
2022-12-08T23:08:09.403Z,44.75
2022-12-08T23:10:36.306Z,52.42
2022-12-08T23:13:04.144Z,41.75
2022-12-08T23:15:31.599Z,65.10
2022-12-08T23:17:58.662Z,60.10
2022-12-08T23:20:25.737Z,52.92
2022-12-08T23:22:53.928Z,48.90
2022-12-08T23:25:20.534Z,45.55
2022-12-08T23:27:47.579Z,44.72
2022-12-08T23:30:15.152Z,44.00
2022-12-08T23:32:42.024Z,41.22
2022-12-08T23:35:09.960Z,47.92
2022-12-08T23:37:36.708Z,43.10
2022-12-08T23:40:04.486Z,41.97
2022-12-08T23:42:31.499Z,39.13
2022-12-08T23:44:58.029Z,42.40
2022-12-08T23:47:25.384Z,39.20
2022-12-08T23:49:52.035Z,40.67
2022-12-08T23:52:18.661Z,40.97
2022-12-08T23:54:45.274Z,46.23
2022-12-08T23:57:11.812Z,36.97
2022-12-08T23:59:38.702Z,35.13
